sensor_id;sensor_type;location;lat;lon;timestamp;P1;durP1;ratioP1;P2;durP2;ratioP2
14187;SDS011;7175;51.978;5.330;2022-11-02T00:01:20;55.20;;;51.90;;
14187;SDS011;7175;51.978;5.330;2022-11-02T00:03:52;56.43;;;52.93;;
14187;SDS011;7175;51.978;5.330;2022-11-02T00:06:20;55.33;;;52.03;;
14187;SDS011;7175;51.978;5.330;2022-11-02T00:08:48;55.33;;;52.03;;
14187;SDS011;7175;51.978;5.330;2022-11-02T00:11:17;51.50;;;48.40;;
14187;SDS011;7175;51.978;5.330;2022-11-02T00:13:45;52.50;;;49.30;;
14187;SDS011;7175;51.978;5.330;2022-11-02T00:16:14;49.00;;;46.00;;
14187;SDS011;7175;51.978;5.330;2022-11-02T00:18:45;44.20;;;41.50;;
14187;SDS011;7175;51.978;5.330;2022-11-02T00:21:17;46.47;;;43.67;;
14187;SDS011;7175;51.978;5.330;2022-11-02T00:23:47;42.20;;;39.60;;
14187;SDS011;7175;51.978;5.330;2022-11-02T00:26:16;41.93;;;39.33;;
14187;SDS011;7175;51.978;5.330;2022-11-02T00:28:46;37.60;;;35.20;;
14187;SDS011;7175;51.978;5.330;2022-11-02T00:31:14;35.30;;;33.00;;
14187;SDS011;7175;51.978;5.330;2022-11-02T00:33:42;36.40;;;34.00;;
14187;SDS011;7175;51.978;5.330;2022-11-02T00:36:10;34.93;;;32.63;;
14187;SDS011;7175;51.978;5.330;2022-11-02T00:38:38;32.47;;;30.27;;
14187;SDS011;7175;51.978;5.330;2022-11-02T00:41:07;33.30;;;31.10;;
14187;SDS011;7175;51.978;5.330;2022-11-02T00:43:36;31.40;;;29.30;;
14187;SDS011;7175;51.978;5.330;2022-11-02T00:46:04;30.37;;;28.37;;
14187;SDS011;7175;51.978;5.330;2022-11-02T00:48:32;32.20;;;30.10;;
14187;SDS011;7175;51.978;5.330;2022-11-02T00:51:01;33.07;;;30.87;;
14187;SDS011;7175;51.978;5.330;2022-11-02T00:53:29;32.03;;;29.93;;
14187;SDS011;7175;51.978;5.330;2022-11-02T00:55:57;32.43;;;30.33;;
14187;SDS011;7175;51.978;5.330;2022-11-02T00:58:25;31.37;;;29.27;;
14187;SDS011;7175;51.978;5.330;2022-11-02T01:00:55;32.97;;;30.77;;
14187;SDS011;7175;51.978;5.330;2022-11-02T01:03:23;31.97;;;29.87;;
14187;SDS011;7175;51.978;5.330;2022-11-02T01:05:52;34.03;;;31.83;;
14187;SDS011;7175;51.978;5.330;2022-11-02T01:08:20;39.90;;;37.40;;
14187;SDS011;7175;51.978;5.330;2022-11-02T01:10:48;48.20;;;45.20;;
14187;SDS011;7175;51.978;5.330;2022-11-02T01:13:16;41.70;;;39.10;;
14187;SDS011;7175;51.978;5.330;2022-11-02T01:15:44;39.93;;;37.43;;
14187;SDS011;7175;51.978;5.330;2022-11-02T01:18:14;38.67;;;36.17;;
14187;SDS011;7175;51.978;5.330;2022-11-02T01:20:42;35.27;;;32.97;;
14187;SDS011;7175;51.978;5.330;2022-11-02T01:23:10;30.40;;;28.40;;
14187;SDS011;7175;51.978;5.330;2022-11-02T01:25:43;29.70;;;27.70;;
14187;SDS011;7175;51.978;5.330;2022-11-02T01:28:12;27.40;;;25.50;;
14187;SDS011;7175;51.978;5.330;2022-11-02T01:30:40;26.83;;;24.93;;
14187;SDS011;7175;51.978;5.330;2022-11-02T01:33:08;28.83;;;26.83;;
14187;SDS011;7175;51.978;5.330;2022-11-02T01:35:38;29.87;;;27.83;;
14187;SDS011;7175;51.978;5.330;2022-11-02T01:38:06;31.43;;;29.33;;
14187;SDS011;7175;51.978;5.330;2022-11-02T01:40:34;33.03;;;30.83;;
14187;SDS011;7175;51.978;5.330;2022-11-02T01:43:17;34.13;;;31.83;;
14187;SDS011;7175;51.978;5.330;2022-11-02T01:45:46;35.67;;;33.37;;
14187;SDS011;7175;51.978;5.330;2022-11-02T01:48:15;36.87;;;34.57;;
14187;SDS011;7175;51.978;5.330;2022-11-02T01:50:54;38.60;;;36.20;;
14187;SDS011;7175;51.978;5.330;2022-11-02T01:53:23;37.10;;;34.70;;
14187;SDS011;7175;51.978;5.330;2022-11-02T01:55:51;40.57;;;37.97;;
14187;SDS011;7175;51.978;5.330;2022-11-02T01:58:20;43.33;;;40.40;;
14187;SDS011;7175;51.978;5.330;2022-11-02T02:00:49;39.77;;;37.27;;
14187;SDS011;7175;51.978;5.330;2022-11-02T02:03:17;38.30;;;35.90;;
14187;SDS011;7175;51.978;5.330;2022-11-02T02:05:47;37.07;;;34.67;;
14187;SDS011;7175;51.978;5.330;2022-11-02T02:08:20;40.47;;;37.77;;
14187;SDS011;7175;51.978;5.330;2022-11-02T02:10:53;39.03;;;36.53;;
14187;SDS011;7175;51.978;5.330;2022-11-02T02:13:22;35.10;;;32.80;;
14187;SDS011;7175;51.978;5.330;2022-11-02T02:15:54;38.90;;;36.40;;
14187;SDS011;7175;51.978;5.330;2022-11-02T02:18:34;40.27;;;37.77;;
14187;SDS011;7175;51.978;5.330;2022-11-02T02:21:19;46.37;;;43.47;;
14187;SDS011;7175;51.978;5.330;2022-11-02T02:24:26;49.67;;;46.67;;
14187;SDS011;7175;51.978;5.330;2022-11-02T02:27:11;51.73;;;48.53;;
14187;SDS011;7175;51.978;5.330;2022-11-02T02:29:48;58.83;;;55.23;;
14187;SDS011;7175;51.978;5.330;2022-11-02T02:32:26;55.47;;;52.07;;
14187;SDS011;7175;51.978;5.330;2022-11-02T02:35:01;58.60;;;55.10;;
14187;SDS011;7175;51.978;5.330;2022-11-02T02:37:38;59.57;;;55.97;;
14187;SDS011;7175;51.978;5.330;2022-11-02T02:40:13;60.53;;;56.90;;
14187;SDS011;7175;51.978;5.330;2022-11-02T02:42:45;57.63;;;54.13;;
14187;SDS011;7175;51.978;5.330;2022-11-02T02:45:21;56.70;;;53.30;;
14187;SDS011;7175;51.978;5.330;2022-11-02T02:47:54;58.10;;;54.60;;
14187;SDS011;7175;51.978;5.330;2022-11-02T02:50:29;59.53;;;55.93;;
14187;SDS011;7175;51.978;5.330;2022-11-02T02:53:01;60.77;;;57.07;;
14187;SDS011;7175;51.978;5.330;2022-11-02T02:55:33;60.63;;;56.93;;
14187;SDS011;7175;51.978;5.330;2022-11-02T02:58:04;60.30;;;56.70;;
14187;SDS011;7175;51.978;5.330;2022-11-02T03:00:38;59.87;;;56.27;;
14187;SDS011;7175;51.978;5.330;2022-11-02T03:03:06;59.03;;;55.33;;
14187;SDS011;7175;51.978;5.330;2022-11-02T03:05:36;57.43;;;53.93;;
14187;SDS011;7175;51.978;5.330;2022-11-02T03:08:05;58.30;;;54.70;;
14187;SDS011;7175;51.978;5.330;2022-11-02T03:10:39;55.97;;;52.47;;
14187;SDS011;7175;51.978;5.330;2022-11-02T03:13:17;57.77;;;54.27;;
14187;SDS011;7175;51.978;5.330;2022-11-02T03:16:02;55.43;;;52.03;;
14187;SDS011;7175;51.978;5.330;2022-11-02T03:18:38;54.53;;;51.13;;
14187;SDS011;7175;51.978;5.330;2022-11-02T03:21:16;50.20;;;47.10;;
14187;SDS011;7175;51.978;5.330;2022-11-02T03:23:53;49.27;;;46.17;;
14187;SDS011;7175;51.978;5.330;2022-11-02T03:26:27;49.37;;;46.27;;
14187;SDS011;7175;51.978;5.330;2022-11-02T03:28:59;48.87;;;45.87;;
14187;SDS011;7175;51.978;5.330;2022-11-02T03:31:35;45.77;;;42.87;;
14187;SDS011;7175;51.978;5.330;2022-11-02T03:34:12;45.03;;;42.23;;
14187;SDS011;7175;51.978;5.330;2022-11-02T03:36:47;42.70;;;40.00;;
14187;SDS011;7175;51.978;5.330;2022-11-02T03:39:18;41.43;;;38.83;;
14187;SDS011;7175;51.978;5.330;2022-11-02T03:41:53;42.10;;;39.40;;
14187;SDS011;7175;51.978;5.330;2022-11-02T03:44:23;40.00;;;37.40;;
14187;SDS011;7175;51.978;5.330;2022-11-02T03:46:55;37.70;;;35.20;;
14187;SDS011;7175;51.978;5.330;2022-11-02T03:49:25;39.43;;;36.87;;
14187;SDS011;7175;51.978;5.330;2022-11-02T03:51:57;40.50;;;37.90;;
14187;SDS011;7175;51.978;5.330;2022-11-02T03:54:30;39.10;;;36.60;;
14187;SDS011;7175;51.978;5.330;2022-11-02T03:57:08;39.10;;;36.60;;
14187;SDS011;7175;51.978;5.330;2022-11-02T03:59:42;38.70;;;36.20;;
14187;SDS011;7175;51.978;5.330;2022-11-02T04:02:12;39.30;;;36.80;;
14187;SDS011;7175;51.978;5.330;2022-11-02T04:04:48;36.13;;;33.73;;
14187;SDS011;7175;51.978;5.330;2022-11-02T04:07:18;34.40;;;32.20;;
14187;SDS011;7175;51.978;5.330;2022-11-02T04:09:49;34.30;;;32.10;;
14187;SDS011;7175;51.978;5.330;2022-11-02T04:12:19;34.30;;;32.10;;
14187;SDS011;7175;51.978;5.330;2022-11-02T04:15:05;34.23;;;32.03;;
14187;SDS011;7175;51.978;5.330;2022-11-02T04:17:35;34.00;;;31.80;;
14187;SDS011;7175;51.978;5.330;2022-11-02T04:20:21;31.97;;;29.87;;
14187;SDS011;7175;51.978;5.330;2022-11-02T04:22:49;32.90;;;30.73;;
14187;SDS011;7175;51.978;5.330;2022-11-02T04:25:34;32.40;;;30.20;;
14187;SDS011;7175;51.978;5.330;2022-11-02T04:28:05;31.67;;;29.57;;
14187;SDS011;7175;51.978;5.330;2022-11-02T04:30:34;29.23;;;27.23;;
14187;SDS011;7175;51.978;5.330;2022-11-02T04:33:04;30.67;;;28.57;;
14187;SDS011;7175;51.978;5.330;2022-11-02T04:35:49;29.23;;;27.23;;
14187;SDS011;7175;51.978;5.330;2022-11-02T04:38:18;28.47;;;26.57;;
14187;SDS011;7175;51.978;5.330;2022-11-02T04:41:03;29.70;;;27.70;;
14187;SDS011;7175;51.978;5.330;2022-11-02T04:43:49;29.10;;;27.10;;
14187;SDS011;7175;51.978;5.330;2022-11-02T04:46:17;28.90;;;26.90;;
14187;SDS011;7175;51.978;5.330;2022-11-02T04:48:47;30.37;;;28.37;;
14187;SDS011;7175;51.978;5.330;2022-11-02T04:51:16;30.07;;;28.07;;
14187;SDS011;7175;51.978;5.330;2022-11-02T04:53:45;29.47;;;27.47;;
14187;SDS011;7175;51.978;5.330;2022-11-02T04:56:14;30.13;;;28.03;;
14187;SDS011;7175;51.978;5.330;2022-11-02T04:58:42;30.57;;;28.47;;
14187;SDS011;7175;51.978;5.330;2022-11-02T05:01:14;30.60;;;28.50;;
14187;SDS011;7175;51.978;5.330;2022-11-02T05:03:45;30.10;;;28.00;;
14187;SDS011;7175;51.978;5.330;2022-11-02T05:06:16;30.57;;;28.47;;
14187;SDS011;7175;51.978;5.330;2022-11-02T05:08:45;30.80;;;28.70;;
14187;SDS011;7175;51.978;5.330;2022-11-02T05:11:13;29.40;;;27.40;;
14187;SDS011;7175;51.978;5.330;2022-11-02T05:13:41;31.80;;;29.70;;
14187;SDS011;7175;51.978;5.330;2022-11-02T05:16:10;31.97;;;29.77;;
14187;SDS011;7175;51.978;5.330;2022-11-02T05:18:39;32.43;;;30.00;;
14187;SDS011;7175;51.978;5.330;2022-11-02T05:21:08;30.63;;;28.53;;
14187;SDS011;7175;51.978;5.330;2022-11-02T05:23:38;30.23;;;28.13;;
14187;SDS011;7175;51.978;5.330;2022-11-02T05:26:08;30.50;;;28.40;;
14187;SDS011;7175;51.978;5.330;2022-11-02T05:28:38;28.83;;;26.83;;
14187;SDS011;7175;51.978;5.330;2022-11-02T05:31:06;28.40;;;26.40;;
14187;SDS011;7175;51.978;5.330;2022-11-02T05:33:34;29.70;;;27.63;;
14187;SDS011;7175;51.978;5.330;2022-11-02T05:36:02;31.20;;;29.10;;
14187;SDS011;7175;51.978;5.330;2022-11-02T05:38:31;29.43;;;27.40;;
14187;SDS011;7175;51.978;5.330;2022-11-02T05:41:01;29.00;;;27.00;;
14187;SDS011;7175;51.978;5.330;2022-11-02T05:43:29;29.60;;;27.60;;
14187;SDS011;7175;51.978;5.330;2022-11-02T05:45:57;31.30;;;29.10;;
14187;SDS011;7175;51.978;5.330;2022-11-02T05:48:29;30.43;;;28.33;;
14187;SDS011;7175;51.978;5.330;2022-11-02T05:50:59;30.93;;;28.83;;
14187;SDS011;7175;51.978;5.330;2022-11-02T05:53:28;31.03;;;28.93;;
14187;SDS011;7175;51.978;5.330;2022-11-02T05:55:58;33.50;;;31.30;;
14187;SDS011;7175;51.978;5.330;2022-11-02T05:58:28;34.40;;;32.20;;
14187;SDS011;7175;51.978;5.330;2022-11-02T06:00:57;33.47;;;31.27;;
14187;SDS011;7175;51.978;5.330;2022-11-02T06:03:25;32.30;;;30.10;;
14187;SDS011;7175;51.978;5.330;2022-11-02T06:05:57;34.70;;;32.27;;
14187;SDS011;7175;51.978;5.330;2022-11-02T06:08:25;32.93;;;30.73;;
14187;SDS011;7175;51.978;5.330;2022-11-02T06:10:54;33.70;;;31.50;;
14187;SDS011;7175;51.978;5.330;2022-11-02T06:13:23;33.30;;;31.10;;
14187;SDS011;7175;51.978;5.330;2022-11-02T06:15:53;33.13;;;30.93;;
14187;SDS011;7175;51.978;5.330;2022-11-02T06:18:21;32.30;;;30.10;;
14187;SDS011;7175;51.978;5.330;2022-11-02T06:20:49;33.87;;;31.57;;
14187;SDS011;7175;51.978;5.330;2022-11-02T06:23:18;34.20;;;31.90;;
14187;SDS011;7175;51.978;5.330;2022-11-02T06:25:49;31.70;;;29.50;;
14187;SDS011;7175;51.978;5.330;2022-11-02T06:28:18;29.90;;;27.73;;
14187;SDS011;7175;51.978;5.330;2022-11-02T06:30:46;31.00;;;28.80;;
14187;SDS011;7175;51.978;5.330;2022-11-02T06:33:16;30.90;;;28.70;;
14187;SDS011;7175;51.978;5.330;2022-11-02T06:35:45;30.63;;;28.43;;
14187;SDS011;7175;51.978;5.330;2022-11-02T06:38:14;30.60;;;28.47;;
14187;SDS011;7175;51.978;5.330;2022-11-02T06:40:42;30.00;;;27.90;;
14187;SDS011;7175;51.978;5.330;2022-11-02T06:43:10;29.10;;;27.00;;
14187;SDS011;7175;51.978;5.330;2022-11-02T06:45:43;27.90;;;25.90;;
14187;SDS011;7175;51.978;5.330;2022-11-02T06:48:12;27.03;;;25.03;;
14187;SDS011;7175;51.978;5.330;2022-11-02T06:50:44;27.10;;;25.10;;
14187;SDS011;7175;51.978;5.330;2022-11-02T06:53:12;27.10;;;25.10;;
14187;SDS011;7175;51.978;5.330;2022-11-02T06:55:40;27.73;;;25.63;;
14187;SDS011;7175;51.978;5.330;2022-11-02T06:58:08;27.63;;;25.53;;
14187;SDS011;7175;51.978;5.330;2022-11-02T07:00:36;27.87;;;25.77;;
14187;SDS011;7175;51.978;5.330;2022-11-02T07:03:05;29.10;;;26.93;;
14187;SDS011;7175;51.978;5.330;2022-11-02T07:05:36;28.00;;;25.90;;
14187;SDS011;7175;51.978;5.330;2022-11-02T07:08:06;28.90;;;26.70;;
14187;SDS011;7175;51.978;5.330;2022-11-02T07:10:34;30.80;;;28.50;;
14187;SDS011;7175;51.978;5.330;2022-11-02T07:13:02;30.50;;;28.10;;
14187;SDS011;7175;51.978;5.330;2022-11-02T07:15:31;28.57;;;26.37;;
14187;SDS011;7175;51.978;5.330;2022-11-02T07:17:59;28.77;;;26.57;;
14187;SDS011;7175;51.978;5.330;2022-11-02T07:20:28;28.97;;;26.67;;
14187;SDS011;7175;51.978;5.330;2022-11-02T07:22:57;29.63;;;27.33;;
14187;SDS011;7175;51.978;5.330;2022-11-02T07:25:28;28.30;;;26.10;;
14187;SDS011;7175;51.978;5.330;2022-11-02T07:27:57;29.10;;;26.80;;
14187;SDS011;7175;51.978;5.330;2022-11-02T07:30:26;29.17;;;26.90;;
14187;SDS011;7175;51.978;5.330;2022-11-02T07:32:54;29.20;;;26.93;;
14187;SDS011;7175;51.978;5.330;2022-11-02T07:35:22;29.77;;;27.47;;
14187;SDS011;7175;51.978;5.330;2022-11-02T07:37:54;29.83;;;27.53;;
14187;SDS011;7175;51.978;5.330;2022-11-02T07:40:23;29.63;;;27.33;;
14187;SDS011;7175;51.978;5.330;2022-11-02T07:42:52;28.97;;;26.70;;
14187;SDS011;7175;51.978;5.330;2022-11-02T07:45:21;28.90;;;26.70;;
14187;SDS011;7175;51.978;5.330;2022-11-02T07:47:49;28.67;;;26.47;;
14187;SDS011;7175;51.978;5.330;2022-11-02T07:50:18;29.10;;;26.90;;
14187;SDS011;7175;51.978;5.330;2022-11-02T07:52:49;28.37;;;26.17;;
14187;SDS011;7175;51.978;5.330;2022-11-02T07:55:20;28.87;;;26.67;;
14187;SDS011;7175;51.978;5.330;2022-11-02T07:57:54;29.97;;;27.70;;
14187;SDS011;7175;51.978;5.330;2022-11-02T08:00:25;29.67;;;27.47;;
14187;SDS011;7175;51.978;5.330;2022-11-02T08:02:55;28.73;;;26.53;;
14187;SDS011;7175;51.978;5.330;2022-11-02T08:05:24;28.23;;;26.03;;
14187;SDS011;7175;51.978;5.330;2022-11-02T08:07:57;27.53;;;25.33;;
14187;SDS011;7175;51.978;5.330;2022-11-02T08:10:25;29.27;;;26.97;;
14187;SDS011;7175;51.978;5.330;2022-11-02T08:12:58;28.43;;;26.23;;
14187;SDS011;7175;51.978;5.330;2022-11-02T08:15:26;27.27;;;25.07;;
14187;SDS011;7175;51.978;5.330;2022-11-02T08:18:00;26.87;;;24.77;;
14187;SDS011;7175;51.978;5.330;2022-11-02T08:20:31;25.70;;;23.60;;
14187;SDS011;7175;51.978;5.330;2022-11-02T08:23:01;25.97;;;23.87;;
14187;SDS011;7175;51.978;5.330;2022-11-02T08:25:31;27.10;;;24.90;;
14187;SDS011;7175;51.978;5.330;2022-11-02T08:28:01;25.33;;;23.23;;
14187;SDS011;7175;51.978;5.330;2022-11-02T08:30:30;25.13;;;23.03;;
14187;SDS011;7175;51.978;5.330;2022-11-02T08:33:01;24.10;;;22.10;;
14187;SDS011;7175;51.978;5.330;2022-11-02T08:35:30;23.73;;;21.73;;
14187;SDS011;7175;51.978;5.330;2022-11-02T08:37:58;23.67;;;21.67;;
14187;SDS011;7175;51.978;5.330;2022-11-02T08:40:26;23.23;;;21.33;;
14187;SDS011;7175;51.978;5.330;2022-11-02T08:42:55;23.20;;;21.30;;
14187;SDS011;7175;51.978;5.330;2022-11-02T08:45:25;23.00;;;21.10;;
14187;SDS011;7175;51.978;5.330;2022-11-02T08:47:53;22.67;;;20.77;;
14187;SDS011;7175;51.978;5.330;2022-11-02T08:50:22;24.37;;;22.37;;
14187;SDS011;7175;51.978;5.330;2022-11-02T08:52:51;23.33;;;21.43;;
14187;SDS011;7175;51.978;5.330;2022-11-02T08:55:19;22.60;;;20.73;;
14187;SDS011;7175;51.978;5.330;2022-11-02T08:57:47;22.57;;;20.77;;
14187;SDS011;7175;51.978;5.330;2022-11-02T09:00:17;22.10;;;20.40;;
14187;SDS011;7175;51.978;5.330;2022-11-02T09:02:58;22.83;;;21.03;;
14187;SDS011;7175;51.978;5.330;2022-11-02T09:05:28;22.70;;;20.90;;
14187;SDS011;7175;51.978;5.330;2022-11-02T09:07:57;22.60;;;20.80;;
14187;SDS011;7175;51.978;5.330;2022-11-02T09:10:28;22.20;;;20.43;;
14187;SDS011;7175;51.978;5.330;2022-11-02T09:12:58;21.63;;;19.93;;
14187;SDS011;7175;51.978;5.330;2022-11-02T09:15:27;21.73;;;20.03;;
14187;SDS011;7175;51.978;5.330;2022-11-02T09:17:57;21.80;;;20.10;;
14187;SDS011;7175;51.978;5.330;2022-11-02T09:20:28;21.83;;;20.13;;
14187;SDS011;7175;51.978;5.330;2022-11-02T09:22:57;21.63;;;19.93;;
14187;SDS011;7175;51.978;5.330;2022-11-02T09:25:25;21.90;;;20.20;;
14187;SDS011;7175;51.978;5.330;2022-11-02T09:27:54;21.90;;;20.20;;
14187;SDS011;7175;51.978;5.330;2022-11-02T09:30:23;21.30;;;19.60;;
14187;SDS011;7175;51.978;5.330;2022-11-02T09:32:52;21.80;;;20.10;;
14187;SDS011;7175;51.978;5.330;2022-11-02T09:35:23;21.70;;;20.00;;
14187;SDS011;7175;51.978;5.330;2022-11-02T09:37:52;20.97;;;19.27;;
14187;SDS011;7175;51.978;5.330;2022-11-02T09:40:21;23.00;;;21.10;;
14187;SDS011;7175;51.978;5.330;2022-11-02T09:42:54;21.57;;;19.87;;
14187;SDS011;7175;51.978;5.330;2022-11-02T09:45:28;23.70;;;21.70;;
14187;SDS011;7175;51.978;5.330;2022-11-02T09:48:00;20.80;;;19.10;;
14187;SDS011;7175;51.978;5.330;2022-11-02T09:50:54;21.10;;;19.40;;
14187;SDS011;7175;51.978;5.330;2022-11-02T09:53:30;20.73;;;19.13;;
14187;SDS011;7175;51.978;5.330;2022-11-02T09:56:04;21.40;;;19.70;;
14187;SDS011;7175;51.978;5.330;2022-11-02T09:58:36;20.53;;;18.93;;
14187;SDS011;7175;51.978;5.330;2022-11-02T10:01:10;21.83;;;20.13;;
14187;SDS011;7175;51.978;5.330;2022-11-02T10:04:04;20.27;;;18.67;;
14187;SDS011;7175;51.978;5.330;2022-11-02T10:06:50;20.40;;;18.80;;
14187;SDS011;7175;51.978;5.330;2022-11-02T10:09:27;20.53;;;18.93;;
14187;SDS011;7175;51.978;5.330;2022-11-02T10:12:02;20.07;;;18.47;;
14187;SDS011;7175;51.978;5.330;2022-11-02T10:14:38;19.97;;;18.37;;
14187;SDS011;7175;51.978;5.330;2022-11-02T10:17:21;20.20;;;18.60;;
14187;SDS011;7175;51.978;5.330;2022-11-02T10:19:54;19.97;;;18.37;;
14187;SDS011;7175;51.978;5.330;2022-11-02T10:22:25;19.73;;;18.20;;
14187;SDS011;7175;51.978;5.330;2022-11-02T10:24:58;19.57;;;18.07;;
14187;SDS011;7175;51.978;5.330;2022-11-02T10:27:28;19.83;;;18.23;;
14187;SDS011;7175;51.978;5.330;2022-11-02T10:30:00;18.87;;;17.37;;
14187;SDS011;7175;51.978;5.330;2022-11-02T10:32:32;19.40;;;17.90;;
14187;SDS011;7175;51.978;5.330;2022-11-02T10:35:02;19.70;;;18.20;;
14187;SDS011;7175;51.978;5.330;2022-11-02T10:38:02;19.17;;;17.67;;
14187;SDS011;7175;51.978;5.330;2022-11-02T10:40:52;19.27;;;17.77;;
14187;SDS011;7175;51.978;5.330;2022-11-02T10:43:35;19.80;;;18.20;;
14187;SDS011;7175;51.978;5.330;2022-11-02T10:46:21;19.30;;;17.80;;
14187;SDS011;7175;51.978;5.330;2022-11-02T10:48:58;19.03;;;17.53;;
14187;SDS011;7175;51.978;5.330;2022-11-02T10:51:32;18.97;;;17.47;;
14187;SDS011;7175;51.978;5.330;2022-11-02T10:54:04;18.80;;;17.30;;
14187;SDS011;7175;51.978;5.330;2022-11-02T10:56:39;18.87;;;17.37;;
14187;SDS011;7175;51.978;5.330;2022-11-02T10:59:09;19.13;;;17.63;;
14187;SDS011;7175;51.978;5.330;2022-11-02T11:01:44;19.37;;;17.80;;
14187;SDS011;7175;51.978;5.330;2022-11-02T11:04:20;18.60;;;17.10;;
14187;SDS011;7175;51.978;5.330;2022-11-02T11:06:50;18.80;;;17.40;;
14187;SDS011;7175;51.978;5.330;2022-11-02T11:09:21;18.60;;;17.20;;
14187;SDS011;7175;51.978;5.330;2022-11-02T11:11:52;19.17;;;17.67;;
14187;SDS011;7175;51.978;5.330;2022-11-02T11:14:22;18.87;;;17.43;;
14187;SDS011;7175;51.978;5.330;2022-11-02T11:17:15;19.40;;;17.90;;
14187;SDS011;7175;51.978;5.330;2022-11-02T11:20:06;18.43;;;17.03;;
14187;SDS011;7175;51.978;5.330;2022-11-02T11:23:05;19.67;;;18.17;;
14187;SDS011;7175;51.978;5.330;2022-11-02T11:25:37;18.20;;;16.80;;
14187;SDS011;7175;51.978;5.330;2022-11-02T11:28:19;19.10;;;17.60;;
14187;SDS011;7175;51.978;5.330;2022-11-02T11:30:49;18.53;;;17.13;;
14187;SDS011;7175;51.978;5.330;2022-11-02T11:33:30;18.40;;;17.00;;
14187;SDS011;7175;51.978;5.330;2022-11-02T11:35:59;18.57;;;17.17;;
14187;SDS011;7175;51.978;5.330;2022-11-02T11:38:27;18.17;;;16.77;;
14187;SDS011;7175;51.978;5.330;2022-11-02T11:40:57;18.60;;;17.20;;
14187;SDS011;7175;51.978;5.330;2022-11-02T11:43:28;18.83;;;17.43;;
14187;SDS011;7175;51.978;5.330;2022-11-02T11:46:04;18.60;;;17.20;;
14187;SDS011;7175;51.978;5.330;2022-11-02T11:48:35;19.40;;;18.00;;
14187;SDS011;7175;51.978;5.330;2022-11-02T11:51:21;18.67;;;17.27;;
14187;SDS011;7175;51.978;5.330;2022-11-02T11:54:03;18.53;;;17.13;;
14187;SDS011;7175;51.978;5.330;2022-11-02T11:56:35;18.93;;;17.53;;
14187;SDS011;7175;51.978;5.330;2022-11-02T11:59:04;19.07;;;17.67;;
14187;SDS011;7175;51.978;5.330;2022-11-02T12:01:47;20.07;;;18.57;;
14187;SDS011;7175;51.978;5.330;2022-11-02T12:04:27;19.00;;;17.60;;
14187;SDS011;7175;51.978;5.330;2022-11-02T12:07:03;19.40;;;18.00;;
14187;SDS011;7175;51.978;5.330;2022-11-02T12:09:45;18.67;;;17.27;;
14187;SDS011;7175;51.978;5.330;2022-11-02T12:12:24;18.20;;;16.80;;
14187;SDS011;7175;51.978;5.330;2022-11-02T12:15:04;19.83;;;18.33;;
14187;SDS011;7175;51.978;5.330;2022-11-02T12:17:44;20.00;;;18.60;;
14187;SDS011;7175;51.978;5.330;2022-11-02T12:23:17;17.90;;;16.50;;
14187;SDS011;7175;51.978;5.330;2022-11-02T12:26:04;19.60;;;18.10;;
14187;SDS011;7175;51.978;5.330;2022-11-02T12:28:43;19.50;;;18.00;;
14187;SDS011;7175;51.978;5.330;2022-11-02T12:31:18;20.47;;;18.87;;
14187;SDS011;7175;51.978;5.330;2022-11-02T12:33:59;18.50;;;17.03;;
14187;SDS011;7175;51.978;5.330;2022-11-02T12:36:46;18.53;;;17.13;;
14187;SDS011;7175;51.978;5.330;2022-11-02T12:39:53;18.63;;;17.23;;
14187;SDS011;7175;51.978;5.330;2022-11-02T12:42:38;18.50;;;17.10;;
14187;SDS011;7175;51.978;5.330;2022-11-02T12:45:19;18.50;;;17.10;;
14187;SDS011;7175;51.978;5.330;2022-11-02T12:47:54;19.87;;;18.37;;
14187;SDS011;7175;51.978;5.330;2022-11-02T12:50:28;18.77;;;17.37;;
14187;SDS011;7175;51.978;5.330;2022-11-02T12:53:11;18.63;;;17.23;;
14187;SDS011;7175;51.978;5.330;2022-11-02T12:55:52;18.67;;;17.27;;
14187;SDS011;7175;51.978;5.330;2022-11-02T12:58:26;18.70;;;17.30;;
14187;SDS011;7175;51.978;5.330;2022-11-02T13:00:59;18.97;;;17.57;;
14187;SDS011;7175;51.978;5.330;2022-11-02T13:03:41;18.90;;;17.50;;
14187;SDS011;7175;51.978;5.330;2022-11-02T13:06:16;18.63;;;17.23;;
14187;SDS011;7175;51.978;5.330;2022-11-02T13:08:49;18.83;;;17.33;;
14187;SDS011;7175;51.978;5.330;2022-11-02T13:11:21;19.00;;;17.60;;
14187;SDS011;7175;51.978;5.330;2022-11-02T13:13:52;19.53;;;18.00;;
14187;SDS011;7175;51.978;5.330;2022-11-02T13:16:32;18.87;;;17.40;;
14187;SDS011;7175;51.978;5.330;2022-11-02T13:19:06;19.20;;;17.70;;
14187;SDS011;7175;51.978;5.330;2022-11-02T13:21:42;19.10;;;17.70;;
14187;SDS011;7175;51.978;5.330;2022-11-02T13:24:16;18.80;;;17.40;;
14187;SDS011;7175;51.978;5.330;2022-11-02T13:26:51;18.77;;;17.37;;
14187;SDS011;7175;51.978;5.330;2022-11-02T13:29:35;18.90;;;17.50;;
14187;SDS011;7175;51.978;5.330;2022-11-02T13:32:10;18.77;;;17.37;;
14187;SDS011;7175;51.978;5.330;2022-11-02T13:34:47;18.50;;;17.10;;
14187;SDS011;7175;51.978;5.330;2022-11-02T13:37:20;18.33;;;16.93;;
14187;SDS011;7175;51.978;5.330;2022-11-02T13:39:52;18.50;;;17.10;;
14187;SDS011;7175;51.978;5.330;2022-11-02T13:42:31;18.37;;;16.97;;
14187;SDS011;7175;51.978;5.330;2022-11-02T13:45:43;17.90;;;16.50;;
14187;SDS011;7175;51.978;5.330;2022-11-02T13:48:49;17.90;;;16.50;;
14187;SDS011;7175;51.978;5.330;2022-11-02T13:51:26;18.47;;;17.07;;
14187;SDS011;7175;51.978;5.330;2022-11-02T13:53:59;18.53;;;17.03;;
14187;SDS011;7175;51.978;5.330;2022-11-02T13:56:29;18.70;;;17.30;;
14187;SDS011;7175;51.978;5.330;2022-11-02T13:59:02;19.60;;;17.60;;
14187;SDS011;7175;51.978;5.330;2022-11-02T14:01:34;18.50;;;17.00;;
14187;SDS011;7175;51.978;5.330;2022-11-02T14:04:08;18.60;;;17.10;;
14187;SDS011;7175;51.978;5.330;2022-11-02T14:06:43;18.50;;;17.00;;
14187;SDS011;7175;51.978;5.330;2022-11-02T14:12:11;18.60;;;17.10;;
14187;SDS011;7175;51.978;5.330;2022-11-02T14:18:00;18.43;;;16.93;;
14187;SDS011;7175;51.978;5.330;2022-11-02T14:20:40;18.50;;;17.00;;
14187;SDS011;7175;51.978;5.330;2022-11-02T14:29:01;17.90;;;16.50;;
14187;SDS011;7175;51.978;5.330;2022-11-02T14:31:35;17.90;;;16.50;;
14187;SDS011;7175;51.978;5.330;2022-11-02T14:34:23;17.80;;;16.40;;
14187;SDS011;7175;51.978;5.330;2022-11-02T14:37:08;17.97;;;16.57;;
14187;SDS011;7175;51.978;5.330;2022-11-02T14:39:49;17.80;;;16.40;;
14187;SDS011;7175;51.978;5.330;2022-11-02T14:45:28;17.97;;;16.57;;
14187;SDS011;7175;51.978;5.330;2022-11-02T14:48:10;18.00;;;16.60;;
14187;SDS011;7175;51.978;5.330;2022-11-02T14:50:42;19.00;;;17.30;;
14187;SDS011;7175;51.978;5.330;2022-11-02T14:53:17;17.83;;;16.43;;
14187;SDS011;7175;51.978;5.330;2022-11-02T14:55:51;18.03;;;16.63;;
14187;SDS011;7175;51.978;5.330;2022-11-02T14:58:21;17.70;;;16.30;;
14187;SDS011;7175;51.978;5.330;2022-11-02T15:00:54;17.70;;;16.30;;
14187;SDS011;7175;51.978;5.330;2022-11-02T15:03:27;18.33;;;16.93;;
14187;SDS011;7175;51.978;5.330;2022-11-02T15:06:00;17.53;;;16.23;;
14187;SDS011;7175;51.978;5.330;2022-11-02T15:08:33;18.27;;;16.87;;
14187;SDS011;7175;51.978;5.330;2022-11-02T15:20:21;17.03;;;15.70;;
14187;SDS011;7175;51.978;5.330;2022-11-02T15:22:53;17.23;;;15.93;;
14187;SDS011;7175;51.978;5.330;2022-11-02T15:25:33;17.40;;;16.10;;
14187;SDS011;7175;51.978;5.330;2022-11-02T15:28:06;17.20;;;15.90;;
14187;SDS011;7175;51.978;5.330;2022-11-02T15:30:39;17.60;;;16.30;;
14187;SDS011;7175;51.978;5.330;2022-11-02T15:33:10;17.90;;;16.60;;
14187;SDS011;7175;51.978;5.330;2022-11-02T15:35:44;17.53;;;16.23;;